sensor_id;sensor_type;location;lat;lon;timestamp;pressure;altitude;pressure_sealevel;temperature;humidity
10881;BME280;5493;48.884;8.338;2022-12-15T00:02:17;99099.19;;;0.43;100.00
10881;BME280;5493;48.884;8.338;2022-12-15T00:05:01;99098.66;;;0.33;100.00
10881;BME280;5493;48.884;8.338;2022-12-15T00:07:45;99105.25;;;0.37;100.00
10881;BME280;5493;48.884;8.338;2022-12-15T00:10:29;99101.50;;;0.32;100.00
10881;BME280;5493;48.884;8.338;2022-12-15T00:13:12;99099.56;;;0.11;100.00
10881;BME280;5493;48.884;8.338;2022-12-15T00:15:58;99095.94;;;0.12;100.00
10881;BME280;5493;48.884;8.338;2022-12-15T00:18:42;99095.38;;;0.17;100.00
10881;BME280;5493;48.884;8.338;2022-12-15T00:21:27;99095.75;;;0.28;100.00
10881;BME280;5493;48.884;8.338;2022-12-15T00:24:11;99104.63;;;0.35;100.00
10881;BME280;5493;48.884;8.338;2022-12-15T00:26:55;99103.34;;;0.46;100.00
10881;BME280;5493;48.884;8.338;2022-12-15T00:29:39;99106.97;;;0.60;100.00
10881;BME280;5493;48.884;8.338;2022-12-15T00:32:24;99120.22;;;0.60;100.00
10881;BME280;5493;48.884;8.338;2022-12-15T00:35:08;99122.72;;;0.32;100.00
10881;BME280;5493;48.884;8.338;2022-12-15T00:37:52;99129.84;;;0.46;100.00
10881;BME280;5493;48.884;8.338;2022-12-15T00:40:36;99134.41;;;0.52;100.00
10881;BME280;5493;48.884;8.338;2022-12-15T00:43:02;99142.56;;;0.36;100.00
10881;BME280;5493;48.884;8.338;2022-12-15T00:45:29;99150.06;;;0.47;100.00
10881;BME280;5493;48.884;8.338;2022-12-15T00:48:11;99140.16;;;0.41;100.00
10881;BME280;5493;48.884;8.338;2022-12-15T00:50:37;99143.25;;;0.30;100.00
10881;BME280;5493;48.884;8.338;2022-12-15T00:53:18;99152.88;;;0.31;100.00
10881;BME280;5493;48.884;8.338;2022-12-15T00:56:02;99154.63;;;0.38;100.00
10881;BME280;5493;48.884;8.338;2022-12-15T00:58:47;99141.53;;;0.22;100.00
10881;BME280;5493;48.884;8.338;2022-12-15T01:01:30;99133.09;;;0.19;100.00
10881;BME280;5493;48.884;8.338;2022-12-15T01:04:16;99129.47;;;0.20;100.00
10881;BME280;5493;48.884;8.338;2022-12-15T01:07:00;99134.56;;;0.07;100.00
10881;BME280;5493;48.884;8.338;2022-12-15T01:09:44;99136.41;;;0.06;100.00
10881;BME280;5493;48.884;8.338;2022-12-15T01:12:28;99145.72;;;0.02;100.00
10881;BME280;5493;48.884;8.338;2022-12-15T01:15:12;99147.47;;;0.10;100.00
10881;BME280;5493;48.884;8.338;2022-12-15T01:17:56;99149.22;;;0.17;100.00
10881;BME280;5493;48.884;8.338;2022-12-15T01:20:41;99153.59;;;0.25;100.00
10881;BME280;5493;48.884;8.338;2022-12-15T01:23:08;99153.41;;;0.26;100.00
10881;BME280;5493;48.884;8.338;2022-12-15T01:25:36;99159.84;;;0.46;100.00
10881;BME280;5493;48.884;8.338;2022-12-15T01:28:04;99160.38;;;0.27;100.00
10881;BME280;5493;48.884;8.338;2022-12-15T01:30:30;99168.78;;;0.31;100.00
10881;BME280;5493;48.884;8.338;2022-12-15T01:32:57;99168.22;;;0.21;100.00
10881;BME280;5493;48.884;8.338;2022-12-15T01:35:24;99158.16;;;0.16;100.00
10881;BME280;5493;48.884;8.338;2022-12-15T01:37:53;99160.34;;;0.13;100.00
10881;BME280;5493;48.884;8.338;2022-12-15T01:40:20;99164.75;;;0.20;100.00
10881;BME280;5493;48.884;8.338;2022-12-15T01:43:10;99165.56;;;0.21;100.00
10881;BME280;5493;48.884;8.338;2022-12-15T01:45:47;99168.41;;;0.34;100.00
10881;BME280;5493;48.884;8.338;2022-12-15T01:48:19;99167.75;;;0.17;100.00
10881;BME280;5493;48.884;8.338;2022-12-15T01:50:56;99160.81;;;0.31;100.00
10881;BME280;5493;48.884;8.338;2022-12-15T01:53:25;99160.38;;;0.27;100.00
10881;BME280;5493;48.884;8.338;2022-12-15T01:55:52;99158.69;;;0.12;100.00
10881;BME280;5493;48.884;8.338;2022-12-15T01:58:20;99161.16;;;0.13;100.00
10881;BME280;5493;48.884;8.338;2022-12-15T02:00:47;99169.50;;;0.25;100.00
10881;BME280;5493;48.884;8.338;2022-12-15T02:03:13;99170.50;;;0.24;100.00
10881;BME280;5493;48.884;8.338;2022-12-15T02:05:40;99171.97;;;0.26;100.00
10881;BME280;5493;48.884;8.338;2022-12-15T02:08:08;99166.94;;;0.17;100.00
10881;BME280;5493;48.884;8.338;2022-12-15T02:10:44;99172.44;;;0.44;100.00
10881;BME280;5493;48.884;8.338;2022-12-15T02:13:21;99165.75;;;0.34;100.00
10881;BME280;5493;48.884;8.338;2022-12-15T02:15:55;99169.78;;;0.44;100.00
10881;BME280;5493;48.884;8.338;2022-12-15T02:18:30;99168.50;;;0.70;100.00
10881;BME280;5493;48.884;8.338;2022-12-15T02:21:01;99167.88;;;0.38;100.00
10881;BME280;5493;48.884;8.338;2022-12-15T02:23:54;99171.34;;;0.68;100.00
10881;BME280;5493;48.884;8.338;2022-12-15T02:32:26;99181.50;;;0.65;100.00
10881;BME280;5493;48.884;8.338;2022-12-15T02:34:58;99190.25;;;0.65;100.00
10881;BME280;5493;48.884;8.338;2022-12-15T02:37:30;99181.50;;;0.65;100.00
10881;BME280;5493;48.884;8.338;2022-12-15T02:39:58;99182.31;;;0.65;100.00
10881;BME280;5493;48.884;8.338;2022-12-15T02:42:25;99185.69;;;0.59;100.00
10881;BME280;5493;48.884;8.338;2022-12-15T02:44:57;99180.38;;;0.74;100.00
10881;BME280;5493;48.884;8.338;2022-12-15T02:47:34;99173.53;;;0.94;100.00
10881;BME280;5493;48.884;8.338;2022-12-15T02:50:30;99178.94;;;0.57;100.00
10881;BME280;5493;48.884;8.338;2022-12-15T02:53:13;99181.38;;;0.87;100.00
10881;BME280;5493;48.884;8.338;2022-12-15T02:55:50;99177.94;;;0.72;100.00
10881;BME280;5493;48.884;8.338;2022-12-15T02:58:38;99173.09;;;0.61;100.00
10881;BME280;5493;48.884;8.338;2022-12-15T03:01:16;99184.69;;;0.60;100.00
10881;BME280;5493;48.884;8.338;2022-12-15T03:03:46;99180.19;;;1.05;100.00
10881;BME280;5493;48.884;8.338;2022-12-15T03:06:14;99181.03;;;0.90;100.00
10881;BME280;5493;48.884;8.338;2022-12-15T03:08:40;99182.03;;;0.89;100.00
10881;BME280;5493;48.884;8.338;2022-12-15T03:11:07;99185.22;;;0.85;100.00
10881;BME280;5493;48.884;8.338;2022-12-15T03:13:33;99193.13;;;0.64;100.00
10881;BME280;5493;48.884;8.338;2022-12-15T03:16:00;99201.44;;;0.61;100.00
10881;BME280;5493;48.884;8.338;2022-12-15T03:18:27;99201.34;;;0.54;100.00
10881;BME280;5493;48.884;8.338;2022-12-15T03:20:54;99197.13;;;0.74;100.00
10881;BME280;5493;48.884;8.338;2022-12-15T03:23:21;99187.97;;;0.47;100.00
10881;BME280;5493;48.884;8.338;2022-12-15T03:25:47;99190.28;;;0.51;100.00
10881;BME280;5493;48.884;8.338;2022-12-15T03:28:14;99191.28;;;0.49;100.00
10881;BME280;5493;48.884;8.338;2022-12-15T03:30:41;99199.78;;;0.60;100.00
10881;BME280;5493;48.884;8.338;2022-12-15T03:33:07;99198.84;;;0.38;100.00
10881;BME280;5493;48.884;8.338;2022-12-15T03:35:34;99200.16;;;0.57;100.00
10881;BME280;5493;48.884;8.338;2022-12-15T03:38:02;99195.59;;;0.51;100.00
10881;BME280;5493;48.884;8.338;2022-12-15T03:40:28;99204.72;;;0.63;100.00
10881;BME280;5493;48.884;8.338;2022-12-15T03:42:55;99210.09;;;0.69;100.00
10881;BME280;5493;48.884;8.338;2022-12-15T03:45:24;99209.31;;;0.54;100.00
10881;BME280;5493;48.884;8.338;2022-12-15T03:47:51;99214.41;;;0.70;100.00
10881;BME280;5493;48.884;8.338;2022-12-15T03:50:20;99216.16;;;0.78;100.00
10881;BME280;5493;48.884;8.338;2022-12-15T03:52:49;99217.97;;;0.77;100.00
10881;BME280;5493;48.884;8.338;2022-12-15T03:55:17;99217.16;;;0.77;100.00
10881;BME280;5493;48.884;8.338;2022-12-15T03:57:44;99219.53;;;0.57;100.00
10881;BME280;5493;48.884;8.338;2022-12-15T04:00:12;99216.59;;;0.52;100.00
10881;BME280;5493;48.884;8.338;2022-12-15T04:02:39;99224.94;;;0.49;100.00
10881;BME280;5493;48.884;8.338;2022-12-15T04:05:06;99222.72;;;0.38;100.00
10881;BME280;5493;48.884;8.338;2022-12-15T04:07:33;99228.38;;;0.35;100.00
10881;BME280;5493;48.884;8.338;2022-12-15T04:10:00;99224.81;;;0.28;100.00
10881;BME280;5493;48.884;8.338;2022-12-15T04:12:28;99220.50;;;0.27;100.00
10881;BME280;5493;48.884;8.338;2022-12-15T04:14:54;99221.22;;;0.21;100.00
10881;BME280;5493;48.884;8.338;2022-12-15T04:17:21;99207.34;;;0.33;100.00
10881;BME280;5493;48.884;8.338;2022-12-15T04:19:47;99213.09;;;0.37;100.00
10881;BME280;5493;48.884;8.338;2022-12-15T04:22:31;99202.22;;;0.32;100.00
10881;BME280;5493;48.884;8.338;2022-12-15T04:24:58;99202.88;;;0.34;100.00
10881;BME280;5493;48.884;8.338;2022-12-15T04:27:44;99200.03;;;0.21;100.00
10881;BME280;5493;48.884;8.338;2022-12-15T04:30:29;99208.50;;;0.16;100.00
10881;BME280;5493;48.884;8.338;2022-12-15T04:33:13;99206.44;;;0.41;100.00
10881;BME280;5493;48.884;8.338;2022-12-15T04:35:57;99210.03;;;0.63;100.00
10881;BME280;5493;48.884;8.338;2022-12-15T04:38:42;99217.81;;;0.64;100.00
10881;BME280;5493;48.884;8.338;2022-12-15T04:41:26;99220.25;;;0.66;100.00
10881;BME280;5493;48.884;8.338;2022-12-15T04:44:11;99232.38;;;0.83;100.00
10881;BME280;5493;48.884;8.338;2022-12-15T04:46:55;99224.28;;;0.47;100.00
10881;BME280;5493;48.884;8.338;2022-12-15T04:49:39;99226.56;;;0.35;100.00
10881;BME280;5493;48.884;8.338;2022-12-15T04:52:23;99226.34;;;0.37;100.00
10881;BME280;5493;48.884;8.338;2022-12-15T04:55:08;99227.28;;;0.44;100.00
10881;BME280;5493;48.884;8.338;2022-12-15T04:57:52;99220.34;;;0.43;100.00
10881;BME280;5493;48.884;8.338;2022-12-15T05:00:37;99221.97;;;0.44;100.00
10881;BME280;5493;48.884;8.338;2022-12-15T05:03:21;99233.63;;;0.58;100.00
10881;BME280;5493;48.884;8.338;2022-12-15T05:06:05;99236.84;;;0.30;100.00
10881;BME280;5493;48.884;8.338;2022-12-15T05:08:49;99246.97;;;0.49;100.00
10881;BME280;5493;48.884;8.338;2022-12-15T05:11:33;99243.16;;;0.29;100.00
10881;BME280;5493;48.884;8.338;2022-12-15T05:14:17;99241.09;;;0.39;100.00
10881;BME280;5493;48.884;8.338;2022-12-15T05:17:02;99235.63;;;0.56;100.00
10881;BME280;5493;48.884;8.338;2022-12-15T05:19:46;99224.38;;;0.54;100.00
10881;BME280;5493;48.884;8.338;2022-12-15T05:22:30;99218.97;;;0.62;100.00
10881;BME280;5493;48.884;8.338;2022-12-15T05:25:14;99216.59;;;0.96;100.00
10881;BME280;5493;48.884;8.338;2022-12-15T05:27:58;99221.38;;;0.86;100.00
10881;BME280;5493;48.884;8.338;2022-12-15T05:30:42;99220.81;;;0.46;100.00
10881;BME280;5493;48.884;8.338;2022-12-15T05:33:28;99233.13;;;0.25;100.00
10881;BME280;5493;48.884;8.338;2022-12-15T05:35:55;99224.59;;;0.29;100.00
10881;BME280;5493;48.884;8.338;2022-12-15T05:38:22;99224.91;;;0.34;100.00
10881;BME280;5493;48.884;8.338;2022-12-15T05:40:49;99235.50;;;0.34;100.00
10881;BME280;5493;48.884;8.338;2022-12-15T05:43:15;99241.47;;;0.66;100.00
10881;BME280;5493;48.884;8.338;2022-12-15T05:45:42;99231.31;;;0.55;100.00
10881;BME280;5493;48.884;8.338;2022-12-15T05:48:09;99231.78;;;0.58;100.00
10881;BME280;5493;48.884;8.338;2022-12-15T05:50:37;99230.97;;;0.43;100.00
10881;BME280;5493;48.884;8.338;2022-12-15T05:53:03;99230.28;;;0.41;100.00
10881;BME280;5493;48.884;8.338;2022-12-15T05:55:30;99222.84;;;0.22;100.00
10881;BME280;5493;48.884;8.338;2022-12-15T05:57:56;99228.66;;;0.25;100.00
10881;BME280;5493;48.884;8.338;2022-12-15T06:00:23;99227.28;;;0.44;100.00
10881;BME280;5493;48.884;8.338;2022-12-15T06:02:50;99231.28;;;0.25;100.00
10881;BME280;5493;48.884;8.338;2022-12-15T06:05:16;99223.81;;;0.29;100.00
10881;BME280;5493;48.884;8.338;2022-12-15T06:07:44;99233.63;;;0.58;100.00
10881;BME280;5493;48.884;8.338;2022-12-15T06:10:11;99240.38;;;0.45;100.00
10881;BME280;5493;48.884;8.338;2022-12-15T06:12:37;99240.34;;;0.31;100.00
10881;BME280;5493;48.884;8.338;2022-12-15T06:15:05;99247.06;;;0.56;100.00
10881;BME280;5493;48.884;8.338;2022-12-15T06:17:31;99244.50;;;0.63;100.00
10881;BME280;5493;48.884;8.338;2022-12-15T06:19:58;99247.53;;;0.89;100.00
10881;BME280;5493;48.884;8.338;2022-12-15T06:22:24;99256.41;;;1.11;100.00
10881;BME280;5493;48.884;8.338;2022-12-15T06:24:52;99268.47;;;0.84;100.00
10881;BME280;5493;48.884;8.338;2022-12-15T06:27:19;99262.91;;;0.93;100.00
10881;BME280;5493;48.884;8.338;2022-12-15T06:29:45;99262.09;;;0.78;100.00
10881;BME280;5493;48.884;8.338;2022-12-15T06:32:12;99260.63;;;0.76;100.00
10881;BME280;5493;48.884;8.338;2022-12-15T06:34:38;99258.66;;;0.55;100.00
10881;BME280;5493;48.884;8.338;2022-12-15T06:37:05;99262.69;;;0.66;100.00
10881;BME280;5493;48.884;8.338;2022-12-15T06:39:32;99262.44;;;0.61;100.00
10881;BME280;5493;48.884;8.338;2022-12-15T06:42:00;99262.97;;;0.71;100.00
10881;BME280;5493;48.884;8.338;2022-12-15T06:44:26;99268.47;;;0.69;100.00
10881;BME280;5493;48.884;8.338;2022-12-15T06:46:53;99263.53;;;0.81;100.00
10881;BME280;5493;48.884;8.338;2022-12-15T06:49:19;99260.88;;;0.81;100.00
10881;BME280;5493;48.884;8.338;2022-12-15T06:51:47;99264.72;;;0.78;100.00
10881;BME280;5493;48.884;8.338;2022-12-15T06:54:14;99261.63;;;0.89;100.00
10881;BME280;5493;48.884;8.338;2022-12-15T06:56:41;99256.78;;;0.93;100.00
10881;BME280;5493;48.884;8.338;2022-12-15T06:59:10;99253.13;;;0.94;100.00
10881;BME280;5493;48.884;8.338;2022-12-15T07:01:36;99244.06;;;1.03;100.00
10881;BME280;5493;48.884;8.338;2022-12-15T07:04:03;99247.81;;;0.79;100.00
10881;BME280;5493;48.884;8.338;2022-12-15T07:06:31;99246.16;;;0.64;100.00
10881;BME280;5493;48.884;8.338;2022-12-15T07:09:00;99249.72;;;0.71;100.00
10881;BME280;5493;48.884;8.338;2022-12-15T07:11:27;99252.44;;;0.48;100.00
10881;BME280;5493;48.884;8.338;2022-12-15T07:13:53;99266.94;;;0.37;100.00
10881;BME280;5493;48.884;8.338;2022-12-15T07:16:22;99253.91;;;0.51;100.00
10881;BME280;5493;48.884;8.338;2022-12-15T07:18:49;99243.63;;;0.33;100.00
10881;BME280;5493;48.884;8.338;2022-12-15T07:21:16;99238.78;;;0.36;100.00
10881;BME280;5493;48.884;8.338;2022-12-15T07:23:43;99246.00;;;0.28;100.00
10881;BME280;5493;48.884;8.338;2022-12-15T07:26:09;99249.09;;;0.17;100.00
10881;BME280;5493;48.884;8.338;2022-12-15T07:28:36;99262.06;;;0.26;100.00
10881;BME280;5493;48.884;8.338;2022-12-15T07:31:04;99254.81;;;0.43;100.00
10881;BME280;5493;48.884;8.338;2022-12-15T07:33:33;99254.22;;;0.33;100.00
10881;BME280;5493;48.884;8.338;2022-12-15T07:36:00;99253.59;;;0.31;100.00
10881;BME280;5493;48.884;8.338;2022-12-15T07:38:28;99266.94;;;0.37;100.00
10881;BME280;5493;48.884;8.338;2022-12-15T07:40:59;99272.75;;;0.70;100.00
10881;BME280;5493;48.884;8.338;2022-12-15T07:43:26;99274.19;;;0.58;100.00
10881;BME280;5493;48.884;8.338;2022-12-15T07:45:54;99276.06;;;0.58;100.00
10881;BME280;5493;48.884;8.338;2022-12-15T07:48:20;99277.63;;;0.67;100.00
10881;BME280;5493;48.884;8.338;2022-12-15T07:50:49;99285.88;;;0.86;100.00
10881;BME280;5493;48.884;8.338;2022-12-15T07:53:16;99291.81;;;0.88;100.00
10881;BME280;5493;48.884;8.338;2022-12-15T07:55:42;99297.03;;;0.82;100.00
10881;BME280;5493;48.884;8.338;2022-12-15T07:58:09;99300.31;;;0.84;100.00
10881;BME280;5493;48.884;8.338;2022-12-15T08:00:35;99306.34;;;0.78;100.00
10881;BME280;5493;48.884;8.338;2022-12-15T08:03:02;99312.41;;;0.86;100.00
10881;BME280;5493;48.884;8.338;2022-12-15T08:05:28;99313.56;;;0.84;100.00
10881;BME280;5493;48.884;8.338;2022-12-15T08:07:57;99319.72;;;0.84;100.00
10881;BME280;5493;48.884;8.338;2022-12-15T08:10:23;99322.72;;;0.81;100.00
10881;BME280;5493;48.884;8.338;2022-12-15T08:12:51;99312.66;;;0.77;100.00
10881;BME280;5493;48.884;8.338;2022-12-15T08:15:17;99309.34;;;0.60;100.00
10881;BME280;5493;48.884;8.338;2022-12-15T08:17:44;99308.91;;;0.71;100.00
10881;BME280;5493;48.884;8.338;2022-12-15T08:20:11;99307.63;;;0.82;100.00
10881;BME280;5493;48.884;8.338;2022-12-15T08:22:39;99306.19;;;0.79;100.00
10881;BME280;5493;48.884;8.338;2022-12-15T08:25:08;99314.69;;;0.89;100.00
10881;BME280;5493;48.884;8.338;2022-12-15T08:27:34;99313.06;;;1.03;100.00
10881;BME280;5493;48.884;8.338;2022-12-15T08:30:01;99323.13;;;1.08;100.00
10881;BME280;5493;48.884;8.338;2022-12-15T08:32:28;99339.59;;;1.18;100.00
10881;BME280;5493;48.884;8.338;2022-12-15T08:34:54;99340.34;;;1.12;100.00
10881;BME280;5493;48.884;8.338;2022-12-15T08:37:21;99350.13;;;1.11;100.00
10881;BME280;5493;48.884;8.338;2022-12-15T08:39:48;99354.41;;;0.97;100.00
10881;BME280;5493;48.884;8.338;2022-12-15T08:42:15;99353.22;;;1.00;100.00
10881;BME280;5493;48.884;8.338;2022-12-15T08:44:42;99345.81;;;0.95;100.00
10881;BME280;5493;48.884;8.338;2022-12-15T08:47:09;99337.09;;;0.87;100.00
10881;BME280;5493;48.884;8.338;2022-12-15T08:49:35;99336.53;;;0.77;100.00
10881;BME280;5493;48.884;8.338;2022-12-15T08:52:02;99348.59;;;0.65;100.00
10881;BME280;5493;48.884;8.338;2022-12-15T08:54:28;99344.03;;;0.88;100.00
10881;BME280;5493;48.884;8.338;2022-12-15T08:56:56;99345.63;;;0.60;100.00
10881;BME280;5493;48.884;8.338;2022-12-15T08:59:24;99336.28;;;0.86;100.00
10881;BME280;5493;48.884;8.338;2022-12-15T09:01:51;99330.38;;;0.76;100.00
10881;BME280;5493;48.884;8.338;2022-12-15T09:04:18;99333.34;;;0.81;100.00
10881;BME280;5493;48.884;8.338;2022-12-15T09:06:44;99329.00;;;0.66;100.00
10881;BME280;5493;48.884;8.338;2022-12-15T09:09:11;99328.97;;;0.88;100.00
10881;BME280;5493;48.884;8.338;2022-12-15T09:11:38;99327.97;;;0.52;100.00
10881;BME280;5493;48.884;8.338;2022-12-15T09:14:05;99324.28;;;0.76;100.00
10881;BME280;5493;48.884;8.338;2022-12-15T09:16:33;99330.72;;;0.59;100.00
10881;BME280;5493;48.884;8.338;2022-12-15T09:19:02;99335.06;;;0.74;100.00
10881;BME280;5493;48.884;8.338;2022-12-15T09:21:29;99338.19;;;0.78;100.00
10881;BME280;5493;48.884;8.338;2022-12-15T09:23:57;99345.69;;;0.74;100.00
10881;BME280;5493;48.884;8.338;2022-12-15T09:26:27;99349.00;;;1.06;100.00
10881;BME280;5493;48.884;8.338;2022-12-15T09:28:53;99355.91;;;1.15;100.00
10881;BME280;5493;48.884;8.338;2022-12-15T09:31:21;99353.25;;;1.29;100.00
10881;BME280;5493;48.884;8.338;2022-12-15T09:33:51;99344.53;;;1.35;100.00
10881;BME280;5493;48.884;8.338;2022-12-15T09:36:18;99347.56;;;1.18;100.00
10881;BME280;5493;48.884;8.338;2022-12-15T09:38:45;99345.38;;;1.21;100.00
10881;BME280;5493;48.884;8.338;2022-12-15T09:41:20;99350.47;;;1.52;100.00
10881;BME280;5493;48.884;8.338;2022-12-15T09:43:52;99343.78;;;1.27;100.00
10881;BME280;5493;48.884;8.338;2022-12-15T09:46:25;99347.38;;;1.34;100.00
10881;BME280;5493;48.884;8.338;2022-12-15T09:48:57;99343.69;;;1.49;100.00
10881;BME280;5493;48.884;8.338;2022-12-15T09:51:31;99344.53;;;1.65;100.00
10881;BME280;5493;48.884;8.338;2022-12-15T09:53:59;99340.84;;;1.80;100.00
10881;BME280;5493;48.884;8.338;2022-12-15T09:56:38;99341.31;;;1.69;100.00
10881;BME280;5493;48.884;8.338;2022-12-15T09:59:18;99338.22;;;1.51;100.00
10881;BME280;5493;48.884;8.338;2022-12-15T10:01:51;99323.84;;;1.45;100.00
10881;BME280;5493;48.884;8.338;2022-12-15T10:04:30;99323.16;;;1.73;100.00
10881;BME280;5493;48.884;8.338;2022-12-15T10:07:05;99326.94;;;1.64;100.00
10881;BME280;5493;48.884;8.338;2022-12-15T10:09:33;99324.78;;;1.74;100.00
10881;BME280;5493;48.884;8.338;2022-12-15T10:12:06;99329.44;;;1.51;100.00
10881;BME280;5493;48.884;8.338;2022-12-15T10:14:40;99327.66;;;2.08;100.00
10881;BME280;5493;48.884;8.338;2022-12-15T10:17:17;99332.50;;;2.05;100.00
10881;BME280;5493;48.884;8.338;2022-12-15T10:19:51;99328.72;;;2.14;100.00
10881;BME280;5493;48.884;8.338;2022-12-15T10:22:22;99323.44;;;1.99;100.00
10881;BME280;5493;48.884;8.338;2022-12-15T10:24:49;99320.66;;;2.07;100.00
10881;BME280;5493;48.884;8.338;2022-12-15T10:27:27;99330.53;;;1.92;100.00
10881;BME280;5493;48.884;8.338;2022-12-15T10:30:00;99322.66;;;2.20;100.00
10881;BME280;5493;48.884;8.338;2022-12-15T10:32:35;99309.59;;;2.04;100.00
10881;BME280;5493;48.884;8.338;2022-12-15T10:35:13;99307.13;;;1.81;100.00
10881;BME280;5493;48.884;8.338;2022-12-15T10:37:40;99302.56;;;1.96;100.00
10881;BME280;5493;48.884;8.338;2022-12-15T10:40:08;99297.19;;;2.11;100.00
10881;BME280;5493;48.884;8.338;2022-12-15T10:42:45;99296.19;;;2.33;100.00
10881;BME280;5493;48.884;8.338;2022-12-15T10:45:29;99292.97;;;2.16;100.00
10881;BME280;5493;48.884;8.338;2022-12-15T10:47:58;99285.63;;;2.18;100.00
10881;BME280;5493;48.884;8.338;2022-12-15T10:50:28;99276.13;;;2.09;100.00
10881;BME280;5493;48.884;8.338;2022-12-15T10:52:55;99270.56;;;2.04;100.00
10881;BME280;5493;48.884;8.338;2022-12-15T10:55:32;99275.19;;;2.17;100.00
10881;BME280;5493;48.884;8.338;2022-12-15T10:58:03;99279.22;;;1.91;100.00
10881;BME280;5493;48.884;8.338;2022-12-15T11:00:31;99278.09;;;2.01;100.00
10881;BME280;5493;48.884;8.338;2022-12-15T11:02:58;99274.97;;;1.97;100.00
10881;BME280;5493;48.884;8.338;2022-12-15T11:05:25;99271.88;;;2.15;100.00
10881;BME280;5493;48.884;8.338;2022-12-15T11:07:55;99267.72;;;2.06;100.00
10881;BME280;5493;48.884;8.338;2022-12-15T11:10:23;99266.13;;;1.90;100.00
10881;BME280;5493;48.884;8.338;2022-12-15T11:12:56;99262.53;;;1.97;100.00
10881;BME280;5493;48.884;8.338;2022-12-15T11:15:42;99269.22;;;1.93;100.00
10881;BME280;5493;48.884;8.338;2022-12-15T11:18:21;99275.59;;;1.99;100.00
10881;BME280;5493;48.884;8.338;2022-12-15T11:20:52;99279.44;;;1.75;100.00
10881;BME280;5493;48.884;8.338;2022-12-15T11:23:27;99273.97;;;1.77;100.00
10881;BME280;5493;48.884;8.338;2022-12-15T11:25:58;99275.34;;;1.73;100.00
10881;BME280;5493;48.884;8.338;2022-12-15T11:28:33;99263.53;;;1.96;100.00
10881;BME280;5493;48.884;8.338;2022-12-15T11:31:15;99259.50;;;1.65;100.00
10881;BME280;5493;48.884;8.338;2022-12-15T11:33:43;99253.13;;;1.59;100.00
10881;BME280;5493;48.884;8.338;2022-12-15T11:36:13;99243.25;;;1.74;100.00
10881;BME280;5493;48.884;8.338;2022-12-15T11:38:49;99233.63;;;1.52;100.00
10881;BME280;5493;48.884;8.338;2022-12-15T11:41:32;99226.38;;;1.82;100.00
10881;BME280;5493;48.884;8.338;2022-12-15T11:44:19;99220.00;;;1.97;100.00
10881;BME280;5493;48.884;8.338;2022-12-15T11:46:54;99212.50;;;2.08;100.00
10881;BME280;5493;48.884;8.338;2022-12-15T11:50:03;99200.38;;;1.98;100.00
10881;BME280;5493;48.884;8.338;2022-12-15T11:52:49;99180.19;;;2.04;100.00
10881;BME280;5493;48.884;8.338;2022-12-15T11:55:23;99176.59;;;1.90;100.00
10881;BME280;5493;48.884;8.338;2022-12-15T11:58:04;99168.19;;;1.87;100.00
10881;BME280;5493;48.884;8.338;2022-12-15T12:00:36;99169.13;;;1.79;100.00
10881;BME280;5493;48.884;8.338;2022-12-15T12:03:16;99160.56;;;2.05;100.00
10881;BME280;5493;48.884;8.338;2022-12-15T12:05:57;99170.84;;;1.66;100.00
10881;BME280;5493;48.884;8.338;2022-12-15T12:08:38;99174.25;;;1.60;100.00
10881;BME280;5493;48.884;8.338;2022-12-15T12:11:13;99158.50;;;1.58;100.00
10881;BME280;5493;48.884;8.338;2022-12-15T12:13:49;99156.84;;;1.57;100.00
10881;BME280;5493;48.884;8.338;2022-12-15T12:16:28;99156.69;;;1.80;100.00
10881;BME280;5493;48.884;8.338;2022-12-15T12:19:01;99151.03;;;1.68;100.00
10881;BME280;5493;48.884;8.338;2022-12-15T12:21:33;99153.53;;;1.70;100.00
10881;BME280;5493;48.884;8.338;2022-12-15T12:24:03;99156.03;;;1.57;100.00
10881;BME280;5493;48.884;8.338;2022-12-15T12:26:39;99143.34;;;1.73;100.00
10881;BME280;5493;48.884;8.338;2022-12-15T12:29:13;99150.72;;;1.57;100.00
10881;BME280;5493;48.884;8.338;2022-12-15T12:31:50;99152.09;;;1.74;100.00
10881;BME280;5493;48.884;8.338;2022-12-15T12:34:25;99156.31;;;1.62;100.00
10881;BME280;5493;48.884;8.338;2022-12-15T12:36:54;99152.66;;;1.63;100.00
10881;BME280;5493;48.884;8.338;2022-12-15T12:39:24;99143.69;;;1.91;100.00
10881;BME280;5493;48.884;8.338;2022-12-15T12:41:58;99134.97;;;1.76;100.00
10881;BME280;5493;48.884;8.338;2022-12-15T12:44:30;99135.28;;;1.45;100.00
10881;BME280;5493;48.884;8.338;2022-12-15T12:47:03;99129.19;;;1.66;100.00
10881;BME280;5493;48.884;8.338;2022-12-15T12:49:33;99121.28;;;1.52;100.00
10881;BME280;5493;48.884;8.338;2022-12-15T12:52:03;99113.88;;;1.47;100.00
10881;BME280;5493;48.884;8.338;2022-12-15T12:54:41;99116.09;;;1.92;100.00
10881;BME280;5493;48.884;8.338;2022-12-15T12:57:43;99122.97;;;1.80;100.00
10881;BME280;5493;48.884;8.338;2022-12-15T13:00:21;99113.34;;;1.79;100.00
10881;BME280;5493;48.884;8.338;2022-12-15T13:03:17;99113.16;;;1.81;100.00
10881;BME280;5493;48.884;8.338;2022-12-15T13:05:46;99108.66;;;2.09;100.00
10881;BME280;5493;48.884;8.338;2022-12-15T13:08:47;99110.84;;;1.78;100.00
10881;BME280;5493;48.884;8.338;2022-12-15T13:14:46;99094.78;;;1.86;100.00
10881;BME280;5493;48.884;8.338;2022-12-15T13:17:21;99090.25;;;1.80;100.00
10881;BME280;5493;48.884;8.338;2022-12-15T13:20:18;99077.16;;;2.06;100.00
10881;BME280;5493;48.884;8.338;2022-12-15T13:22:47;99075.78;;;1.89;100.00
10881;BME280;5493;48.884;8.338;2022-12-15T13:25:38;99069.91;;;1.93;100.00
10881;BME280;5493;48.884;8.338;2022-12-15T13:28:24;99061.28;;;2.19;100.00
10881;BME280;5493;48.884;8.338;2022-12-15T13:31:12;99060.81;;;2.09;100.00
10881;BME280;5493;48.884;8.338;2022-12-15T13:33:44;99062.94;;;1.92;100.00
10881;BME280;5493;48.884;8.338;2022-12-15T13:36:10;99057.66;;;1.99;100.00
10881;BME280;5493;48.884;8.338;2022-12-15T13:38:52;99053.41;;;2.05;100.00
10881;BME280;5493;48.884;8.338;2022-12-15T13:41:22;99061.31;;;1.91;100.00
10881;BME280;5493;48.884;8.338;2022-12-15T13:43:50;99060.28;;;1.92;100.00
10881;BME280;5493;48.884;8.338;2022-12-15T13:46:22;99061.44;;;2.11;100.00
10881;BME280;5493;48.884;8.338;2022-12-15T13:48:52;99056.16;;;2.18;100.00
10881;BME280;5493;48.884;8.338;2022-12-15T13:51:31;99062.44;;;2.10;100.00